Flugplatz Ober-Mörlen

Für EDFP sind keine METAR/TAF Berichte vorhanden.
Es werden die Flugwettermeldungen vom Flugplatz Frankfurt am Main International in 37 km Entfernung angezeigt.

Bericht für EDDF

vom 20.09. um 14:50 UTC

Wind 8 kt aus 50°

Sichtweite 10 km oder mehr

gute Sicht, keine Wolken < 5000 ft, keine CB, keine Wettererscheinungen (CAVOK)

Temperatur 25.0°C

Taupunkt 6.0°C

Luftfeuchtigkeit 30%

Luftdruck 1014 hPa

keine wesentliche Wetteränderung innerhalb den nächsten 2 Stunden zu erwarten

EDDF 201450Z 05008KT 360V090 CAVOK 25/06 Q1014 NOSIG

Prognose für EDDF

vom 20.09. um 11:00 UTC

Zwischen 12:00 UTC und 18:00 UTC

Wind 7 kt aus 40°

Sichtweite 10 km oder mehr

keine signifikanten Wettererscheinungen

keine Wolken

TAF EDDF 201100Z 2012/2118 04007KT CAVOK
Impressum